Edna, Oklahoma
Current Conditions -  °F | °C
As of 7:55 AM on Monday 20 Oct 2014 (Local Time) from KOKM Reporting Station
Clear Clear  
Wind Chill: 53°   Ceiling: Unl
Heat Index: 53°   Visibility: 10mi
Dew Point: 51°   Wind: 7mph
Humidity: 92%   Direction: 90°E
Pressure: 30.07"   Gusts: NA
Location:  35.7718°N, 96.3174°W
Report Text: KOKM 201255Z AUTO 09006KT 10SM CLR 12/10 A3007 RMK AO2 LTG DSNT NE T01150103
Loading
Personal Weather Stations






























Interactive Weather Map
Tropical Storm Tracking
New forecast layout! Learn more

10-Day Weather Forecast

Advertisements
Track Severe Weather on mobile